Latest Weather Observations for Inner Beacon

IDQ60801

Issued at 10:32 am EST Thursday 28 July 2016 (issued every 30 minutes, with the page automatically refreshed every 10 minutes)

About weather observations | Map of weather stations | Latest weather observations for QLD | Other Formats
Station Details ID: 040926 Name: INNER RECIPROCAL MARKER Lat: -27.26 Lon: 153.24 Height: 20.0 m
Data from the previous 72 hours. | See also: Recent months for locations in Queensland
Date/Time
EST
Temp
°C
App
Temp
°C
Dew
Point
°C
Rel
Hum
%
Delta-T
°C
Wind Press
QNH
hPa
Press
MSL
hPa
Rain since
9am
mm
Dir  Spd
km/h
Gust
km/h
Spd
kts
Gust
kts
28/10:30am - - - - - SSW 19 20 10 11 - - -
28/10:00am - - - - - SW 22 24 12 13 - - -
28/09:30am - - - - - SW 24 28 13 15 - - -
28/09:00am - - - - - SW 19 20 10 11 - - -
28/08:30am - - - - - SW 22 26 12 14 - - -
28/08:00am - - - - - SW 22 24 12 13 - - -
28/07:30am - - - - - SW 19 20 10 11 - - -
28/07:00am - - - - - SW 20 22 11 12 - - -
28/06:30am - - - - - SW 22 26 12 14 - - -
28/06:00am - - - - - SW 22 26 12 14 - - -
28/05:30am - - - - - SW 20 24 11 13 - - -
28/05:00am - - - - - SW 19 20 10 11 - - -
28/04:30am - - - - - SW 19 20 10 11 - - -
28/04:00am - - - - - SW 20 26 11 14 - - -
28/03:30am - - - - - SW 22 26 12 14 - - -
28/03:00am - - - - - SW 24 30 13 16 - - -
28/02:30am - - - - - SW 20 24 11 13 - - -
28/02:00am - - - - - SW 22 26 12 14 - - -
28/01:30am - - - - - WSW 22 24 12 13 - - -
28/01:00am - - - - - SW 19 22 10 12 - - -
28/12:30am - - - - - WSW 19 22 10 12 - - -
28/12:00am - - - - - WSW 17 19 9 10 - - -
 
Date/Time
EST
Temp
°C
App
Temp
°C
Dew
Point
°C
Rel
Hum
%
Delta-T
°C
Wind Press
QNH
hPa
Press
MSL
hPa
Rain since
9am
mm
Dir  Spd
km/h
Gust
km/h
Spd
kts
Gust
kts
27/11:30pm - - - - - SW 17 20 9 11 - - -
27/11:00pm - - - - - SW 17 22 9 12 - - -
27/10:30pm - - - - - SW 20 24 11 13 - - -
27/10:00pm - - - - - SW 20 24 11 13 - - -
27/09:30pm - - - - - SW 15 17 8 9 - - -
27/09:00pm - - - - - WSW 17 20 9 11 - - -
27/08:30pm - - - - - WNW 9 15 5 8 - - -
27/08:00pm - - - - - NNW 11 15 6 8 - - -
27/07:30pm - - - - - NW 9 11 5 6 - - -
27/07:00pm - - - - - NW 11 13 6 7 - - -
27/06:30pm - - - - - WNW 13 17 7 9 - - -
27/06:00pm - - - - - W 15 17 8 9 - - -
27/05:30pm - - - - - W 17 24 9 13 - - -
27/05:00pm - - - - - W 11 13 6 7 - - -
27/04:30pm - - - - - WNW 9 13 5 7 - - -
27/04:00pm - - - - - WSW 13 17 7 9 - - -
27/03:30pm - - - - - W 17 20 9 11 - - -
27/03:00pm - - - - - WSW 20 24 11 13 - - -
27/02:30pm - - - - - W 20 24 11 13 - - -
27/02:00pm - - - - - W 11 15 6 8 - - -
27/01:30pm - - - - - WSW 17 22 9 12 - - -
27/01:00pm - - - - - WSW 28 32 15 17 - - -
27/12:30pm - - - - - W 32 37 17 20 - - -
27/12:00pm - - - - - WSW 22 26 12 14 - - -
27/11:30am - - - - - WSW 22 28 12 15 - - -
27/11:00am - - - - - WSW 22 28 12 15 - - -
27/10:30am - - - - - W 22 24 12 13 - - -
27/10:00am - - - - - W 22 26 12 14 - - -
27/09:30am - - - - - W 28 32 15 17 - - -
27/09:00am - - - - - W 30 33 16 18 - - -
27/08:30am - - - - - W 24 28 13 15 - - -
27/08:00am - - - - - W 24 26 13 14 - - -
27/07:30am - - - - - W 15 17 8 9 - - -
27/07:00am - - - - - NW 13 20 7 11 - - -
27/06:30am - - - - - NW 17 19 9 10 - - -
27/06:00am - - - - - NW 19 20 10 11 - - -
27/05:30am - - - - - NW 19 22 10 12 - - -
27/05:00am - - - - - WNW 17 19 9 10 - - -
27/04:30am - - - - - NW 13 17 7 9 - - -
27/04:00am - - - - - W 17 19 9 10 - - -
27/03:30am - - - - - WNW 13 17 7 9 - - -
27/03:00am - - - - - WNW 17 19 9 10 - - -
27/02:30am - - - - - NW 13 17 7 9 - - -
27/02:00am - - - - - WNW 15 17 8 9 - - -
27/01:30am - - - - - NW 13 17 7 9 - - -
27/01:00am - - - - - NW 19 24 10 13 - - -
27/12:30am - - - - - NW 22 26 12 14 - - -
27/12:00am - - - - - NNW 20 26 11 14 - - -
 
Date/Time
EST
Temp
°C
App
Temp
°C
Dew
Point
°C
Rel
Hum
%
Delta-T
°C
Wind Press
QNH
hPa
Press
MSL
hPa
Rain since
9am
mm
Dir  Spd
km/h
Gust
km/h
Spd
kts
Gust
kts
26/11:30pm - - - - - NW 17 20 9 11 - - -
26/11:00pm - - - - - NNW 17 20 9 11 - - -
26/10:30pm - - - - - NW 17 20 9 11 - - -
26/10:00pm - - - - - NW 20 26 11 14 - - -
26/09:30pm - - - - - NNW 15 17 8 9 - - -
26/09:00pm - - - - - NNW 19 20 10 11 - - -
26/08:30pm - - - - - NNW 19 24 10 13 - - -
26/08:00pm - - - - - NNW 22 26 12 14 - - -
26/07:30pm - - - - - NNW 19 24 10 13 - - -
26/07:00pm - - - - - NNW 17 19 9 10 - - -
26/06:30pm - - - - - N 13 15 7 8 - - -
26/06:00pm - - - - - N 9 13 5 7 - - -
26/05:30pm - - - - - N 7 9 4 5 - - -
26/05:00pm - - - - - N 2 6 1 3 - - -
26/04:30pm - - - - - NNW 4 6 2 3 - - -
26/04:00pm - - - - - N 4 6 2 3 - - -
26/03:30pm - - - - - N 4 6 2 3 - - -
26/03:00pm - - - - - N 7 7 4 4 - - -
26/02:30pm - - - - - N 7 9 4 5 - - -
26/02:00pm - - - - - NNW 7 9 4 5 - - -
26/01:30pm - - - - - WNW 9 13 5 7 - - -
26/01:00pm - - - - - NW 6 7 3 4 - - -
26/12:30pm - - - - - NW 7 9 4 5 - - -
26/12:00pm - - - - - WNW 7 11 4 6 - - -
26/11:30am - - - - - WSW 13 15 7 8 - - -
26/11:00am - - - - - WSW 15 19 8 10 - - -
26/10:30am - - - - - W 17 19 9 10 - - -
26/10:00am - - - - - W 11 13 6 7 - - -
26/09:30am - - - - - W 11 15 6 8 - - -
26/09:00am - - - - - WNW 13 15 7 8 - - -
26/08:30am - - - - - WNW 13 17 7 9 - - -
26/08:00am - - - - - W 15 17 8 9 - - -
26/07:30am - - - - - W 15 20 8 11 - - -
26/07:00am - - - - - WNW 15 17 8 9 - - -
26/06:30am - - - - - WNW 17 19 9 10 - - -
26/06:00am - - - - - NW 13 17 7 9 - - -
26/05:30am - - - - - W 24 30 13 16 - - -
26/05:00am - - - - - W 19 24 10 13 - - -
26/04:30am - - - - - W 17 20 9 11 - - -
26/04:00am - - - - - W 15 19 8 10 - - -
26/03:30am - - - - - WNW 15 17 8 9 - - -
26/03:00am - - - - - WNW 19 20 10 11 - - -
26/02:30am - - - - - WNW 19 20 10 11 - - -
26/02:00am - - - - - WNW 15 17 8 9 - - -
26/01:30am - - - - - WNW 15 17 8 9 - - -
26/01:00am - - - - - WNW 13 15 7 8 - - -
26/12:30am - - - - - W 17 17 9 9 - - -
26/12:00am - - - - - W 13 17 7 9 - - -
 
Date/Time
EST
Temp
°C
App
Temp
°C
Dew
Point
°C
Rel
Hum
%
Delta-T
°C
Wind Press
QNH
hPa
Press
MSL
hPa
Rain since
9am
mm
Dir  Spd
km/h
Gust
km/h
Spd
kts
Gust
kts
25/11:30pm - - - - - WNW 13 15 7 8 - - -
25/11:00pm - - - - - W 13 17 7 9 - - -
25/10:30pm - - - - - WSW 9 13 5 7 - - -
25/10:00pm - - - - - SW 11 13 6 7 - - -
25/09:30pm - - - - - WSW 11 13 6 7 - - -
25/09:00pm - - - - - WSW 13 17 7 9 - - -
25/08:30pm - - - - - WSW 11 15 6 8 - - -
25/08:00pm - - - - - SW 13 15 7 8 - - -
25/07:30pm - - - - - WSW 15 19 8 10 - - -
25/07:00pm - - - - - W 7 9 4 5 - - -
25/06:30pm - - - - - W 6 7 3 4 - - -
25/06:00pm - - - - - N 2 7 1 4 - - -
25/05:30pm - - - - - NNE 4 6 2 3 - - -
25/05:00pm - - - - - NNW 6 7 3 4 - - -
25/04:30pm - - - - - N 4 6 2 3 - - -
25/04:00pm - - - - - ENE 7 9 4 5 - - -
25/03:30pm - - - - - NE 7 9 4 5 - - -
25/03:00pm - - - - - NNE 11 11 6 6 - - -
25/02:30pm - - - - - NE 11 13 6 7 - - -
25/02:00pm - - - - - ENE 11 13 6 7 - - -
25/01:30pm - - - - - NE 7 9 4 5 - - -
25/01:00pm - - - - - NE 6 7 3 4 - - -
25/12:30pm - - - - - CALM 0 4 0 2 - - -
25/12:00pm - - - - - SSW 7 9 4 5 - - -
25/11:30am - - - - - WSW 9 9 5 5 - - -
25/11:00am - - - - - SW 7 11 4 6 - - -

Other Formats:

Comma delimited format used in spreadsheet applications
http://www.bom.gov.au/fwo/IDQ60801/IDQ60801.94590.axf

JavaScript Object Notation format (JSON) in row-major order
http://www.bom.gov.au/fwo/IDQ60801/IDQ60801.94590.json